sensor_id;sensor_type;location;lat;lon;timestamp;P1;durP1;ratioP1;P2;durP2;ratioP2
3487;SDS011;38546;48.170;11.724;2023-05-27T00:01:18;18.27;;;12.67;;
3487;SDS011;38546;48.170;11.724;2023-05-27T00:04:08;17.03;;;11.93;;
3487;SDS011;38546;48.170;11.724;2023-05-27T00:06:57;17.40;;;12.40;;
3487;SDS011;38546;48.170;11.724;2023-05-27T00:09:47;24.83;;;12.53;;
3487;SDS011;38546;48.170;11.724;2023-05-27T00:12:37;24.10;;;12.70;;
3487;SDS011;38546;48.170;11.724;2023-05-27T00:15:26;15.00;;;11.30;;
3487;SDS011;38546;48.170;11.724;2023-05-27T00:18:15;17.27;;;12.13;;
3487;SDS011;38546;48.170;11.724;2023-05-27T00:21:04;20.70;;;12.47;;
3487;SDS011;38546;48.170;11.724;2023-05-27T00:23:55;18.40;;;11.83;;
3487;SDS011;38546;48.170;11.724;2023-05-27T00:26:45;21.10;;;12.53;;
3487;SDS011;38546;48.170;11.724;2023-05-27T00:29:35;14.87;;;11.83;;
3487;SDS011;38546;48.170;11.724;2023-05-27T00:32:24;18.37;;;12.00;;
3487;SDS011;38546;48.170;11.724;2023-05-27T00:35:14;17.60;;;12.70;;
3487;SDS011;38546;48.170;11.724;2023-05-27T00:38:04;17.33;;;12.70;;
3487;SDS011;38546;48.170;11.724;2023-05-27T00:40:53;23.13;;;12.80;;
3487;SDS011;38546;48.170;11.724;2023-05-27T00:43:44;17.80;;;13.57;;
3487;SDS011;38546;48.170;11.724;2023-05-27T00:46:33;28.20;;;15.40;;
3487;SDS011;38546;48.170;11.724;2023-05-27T00:49:22;24.50;;;14.60;;
3487;SDS011;38546;48.170;11.724;2023-05-27T00:52:14;21.90;;;13.77;;
3487;SDS011;38546;48.170;11.724;2023-05-27T00:55:04;19.77;;;12.80;;
3487;SDS011;38546;48.170;11.724;2023-05-27T00:57:55;24.43;;;13.10;;
3487;SDS011;38546;48.170;11.724;2023-05-27T01:00:45;17.70;;;12.30;;
3487;SDS011;38546;48.170;11.724;2023-05-27T01:03:35;21.07;;;12.73;;
3487;SDS011;38546;48.170;11.724;2023-05-27T01:06:30;24.53;;;13.70;;
3487;SDS011;38546;48.170;11.724;2023-05-27T01:16:39;21.47;;;11.80;;
3487;SDS011;38546;48.170;11.724;2023-05-27T01:19:42;23.90;;;14.80;;
3487;SDS011;38546;48.170;11.724;2023-05-27T01:22:33;18.43;;;13.53;;
3487;SDS011;38546;48.170;11.724;2023-05-27T01:25:24;21.67;;;13.03;;
3487;SDS011;38546;48.170;11.724;2023-05-27T01:28:13;23.40;;;13.00;;
3487;SDS011;38546;48.170;11.724;2023-05-27T01:31:13;21.20;;;13.67;;
3487;SDS011;38546;48.170;11.724;2023-05-27T01:34:09;22.47;;;14.03;;
3487;SDS011;38546;48.170;11.724;2023-05-27T01:37:04;23.37;;;14.50;;
3487;SDS011;38546;48.170;11.724;2023-05-27T01:39:58;17.93;;;14.07;;
3487;SDS011;38546;48.170;11.724;2023-05-27T01:42:47;16.93;;;13.53;;
3487;SDS011;38546;48.170;11.724;2023-05-27T01:45:37;17.87;;;13.10;;
3487;SDS011;38546;48.170;11.724;2023-05-27T01:48:27;21.80;;;13.83;;
3487;SDS011;38546;48.170;11.724;2023-05-27T01:51:17;21.00;;;13.77;;
3487;SDS011;38546;48.170;11.724;2023-05-27T01:54:06;22.30;;;13.33;;
3487;SDS011;38546;48.170;11.724;2023-05-27T01:56:56;20.83;;;14.13;;
3487;SDS011;38546;48.170;11.724;2023-05-27T01:59:45;25.20;;;14.83;;
3487;SDS011;38546;48.170;11.724;2023-05-27T02:02:34;20.03;;;14.13;;
3487;SDS011;38546;48.170;11.724;2023-05-27T02:05:23;22.73;;;13.63;;
3487;SDS011;38546;48.170;11.724;2023-05-27T02:08:13;24.80;;;14.30;;
3487;SDS011;38546;48.170;11.724;2023-05-27T02:11:02;20.30;;;13.80;;
3487;SDS011;38546;48.170;11.724;2023-05-27T02:13:51;24.60;;;15.60;;
3487;SDS011;38546;48.170;11.724;2023-05-27T02:16:44;19.93;;;13.13;;
3487;SDS011;38546;48.170;11.724;2023-05-27T02:19:33;20.90;;;14.07;;
3487;SDS011;38546;48.170;11.724;2023-05-27T02:22:23;24.43;;;13.90;;
3487;SDS011;38546;48.170;11.724;2023-05-27T02:25:13;23.00;;;14.97;;
3487;SDS011;38546;48.170;11.724;2023-05-27T02:28:02;23.57;;;13.93;;
3487;SDS011;38546;48.170;11.724;2023-05-27T02:30:52;21.50;;;15.03;;
3487;SDS011;38546;48.170;11.724;2023-05-27T02:33:41;21.50;;;13.33;;
3487;SDS011;38546;48.170;11.724;2023-05-27T02:36:30;20.10;;;13.37;;
3487;SDS011;38546;48.170;11.724;2023-05-27T02:39:20;21.47;;;13.73;;
3487;SDS011;38546;48.170;11.724;2023-05-27T02:42:09;29.87;;;17.00;;
3487;SDS011;38546;48.170;11.724;2023-05-27T02:44:59;25.23;;;15.17;;
3487;SDS011;38546;48.170;11.724;2023-05-27T02:47:49;20.90;;;14.60;;
3487;SDS011;38546;48.170;11.724;2023-05-27T02:50:38;21.77;;;14.10;;
3487;SDS011;38546;48.170;11.724;2023-05-27T02:53:27;21.20;;;15.47;;
3487;SDS011;38546;48.170;11.724;2023-05-27T02:56:17;19.77;;;15.33;;
3487;SDS011;38546;48.170;11.724;2023-05-27T02:59:06;26.43;;;14.50;;
3487;SDS011;38546;48.170;11.724;2023-05-27T03:01:55;20.30;;;14.07;;
3487;SDS011;38546;48.170;11.724;2023-05-27T03:04:44;23.47;;;15.90;;
3487;SDS011;38546;48.170;11.724;2023-05-27T03:07:34;26.47;;;15.10;;
3487;SDS011;38546;48.170;11.724;2023-05-27T03:10:23;29.73;;;17.03;;
3487;SDS011;38546;48.170;11.724;2023-05-27T03:13:12;20.93;;;15.40;;
3487;SDS011;38546;48.170;11.724;2023-05-27T03:16:02;23.17;;;13.43;;
3487;SDS011;38546;48.170;11.724;2023-05-27T03:18:51;20.83;;;12.67;;
3487;SDS011;38546;48.170;11.724;2023-05-27T03:21:41;19.63;;;13.33;;
3487;SDS011;38546;48.170;11.724;2023-05-27T03:24:30;21.67;;;15.63;;
3487;SDS011;38546;48.170;11.724;2023-05-27T03:27:19;23.87;;;15.10;;
3487;SDS011;38546;48.170;11.724;2023-05-27T03:30:09;25.73;;;13.73;;
3487;SDS011;38546;48.170;11.724;2023-05-27T03:32:59;18.40;;;13.20;;
3487;SDS011;38546;48.170;11.724;2023-05-27T03:35:49;23.03;;;14.73;;
3487;SDS011;38546;48.170;11.724;2023-05-27T03:38:39;18.63;;;13.20;;
3487;SDS011;38546;48.170;11.724;2023-05-27T03:41:29;19.73;;;13.40;;
3487;SDS011;38546;48.170;11.724;2023-05-27T03:44:19;27.93;;;15.93;;
3487;SDS011;38546;48.170;11.724;2023-05-27T03:47:09;23.70;;;13.50;;
3487;SDS011;38546;48.170;11.724;2023-05-27T03:49:58;22.37;;;13.60;;
3487;SDS011;38546;48.170;11.724;2023-05-27T03:52:47;20.87;;;13.37;;
3487;SDS011;38546;48.170;11.724;2023-05-27T03:55:37;18.53;;;13.17;;
3487;SDS011;38546;48.170;11.724;2023-05-27T03:58:26;24.20;;;15.00;;
3487;SDS011;38546;48.170;11.724;2023-05-27T04:01:15;19.60;;;13.30;;
3487;SDS011;38546;48.170;11.724;2023-05-27T04:04:05;21.17;;;13.70;;
3487;SDS011;38546;48.170;11.724;2023-05-27T04:06:55;18.73;;;13.43;;
3487;SDS011;38546;48.170;11.724;2023-05-27T04:09:44;18.70;;;12.57;;
3487;SDS011;38546;48.170;11.724;2023-05-27T04:12:33;21.70;;;14.97;;
3487;SDS011;38546;48.170;11.724;2023-05-27T04:15:23;25.57;;;15.30;;
3487;SDS011;38546;48.170;11.724;2023-05-27T04:18:12;25.80;;;13.83;;
3487;SDS011;38546;48.170;11.724;2023-05-27T04:21:02;25.00;;;14.40;;
3487;SDS011;38546;48.170;11.724;2023-05-27T04:23:52;21.10;;;14.23;;
3487;SDS011;38546;48.170;11.724;2023-05-27T04:26:41;20.97;;;14.20;;
3487;SDS011;38546;48.170;11.724;2023-05-27T04:29:31;24.93;;;13.20;;
3487;SDS011;38546;48.170;11.724;2023-05-27T04:32:23;21.60;;;13.77;;
3487;SDS011;38546;48.170;11.724;2023-05-27T04:35:13;19.07;;;13.00;;
3487;SDS011;38546;48.170;11.724;2023-05-27T04:38:02;27.93;;;15.17;;
3487;SDS011;38546;48.170;11.724;2023-05-27T04:40:51;24.67;;;14.70;;
3487;SDS011;38546;48.170;11.724;2023-05-27T04:43:42;20.60;;;13.97;;
3487;SDS011;38546;48.170;11.724;2023-05-27T04:46:32;21.23;;;12.90;;
3487;SDS011;38546;48.170;11.724;2023-05-27T04:49:22;26.00;;;15.53;;
3487;SDS011;38546;48.170;11.724;2023-05-27T04:52:11;19.23;;;13.07;;
3487;SDS011;38546;48.170;11.724;2023-05-27T04:55:01;20.00;;;13.50;;
3487;SDS011;38546;48.170;11.724;2023-05-27T04:57:50;19.37;;;13.30;;
3487;SDS011;38546;48.170;11.724;2023-05-27T05:00:39;22.50;;;14.17;;
3487;SDS011;38546;48.170;11.724;2023-05-27T05:03:38;22.60;;;14.67;;
3487;SDS011;38546;48.170;11.724;2023-05-27T05:06:39;19.20;;;13.37;;
3487;SDS011;38546;48.170;11.724;2023-05-27T05:09:29;16.50;;;12.40;;
3487;SDS011;38546;48.170;11.724;2023-05-27T05:12:18;16.93;;;12.90;;
3487;SDS011;38546;48.170;11.724;2023-05-27T05:15:08;20.00;;;12.50;;
3487;SDS011;38546;48.170;11.724;2023-05-27T05:17:58;17.83;;;12.07;;
3487;SDS011;38546;48.170;11.724;2023-05-27T05:20:47;16.30;;;12.07;;
3487;SDS011;38546;48.170;11.724;2023-05-27T05:23:36;19.10;;;13.20;;
3487;SDS011;38546;48.170;11.724;2023-05-27T05:26:25;16.97;;;13.13;;
3487;SDS011;38546;48.170;11.724;2023-05-27T05:29:14;20.93;;;12.90;;
3487;SDS011;38546;48.170;11.724;2023-05-27T05:32:04;20.03;;;12.50;;
3487;SDS011;38546;48.170;11.724;2023-05-27T05:34:55;17.73;;;12.47;;
3487;SDS011;38546;48.170;11.724;2023-05-27T05:37:44;17.00;;;12.57;;
3487;SDS011;38546;48.170;11.724;2023-05-27T05:40:34;19.10;;;13.27;;
3487;SDS011;38546;48.170;11.724;2023-05-27T05:43:23;19.93;;;12.60;;
3487;SDS011;38546;48.170;11.724;2023-05-27T05:46:13;14.93;;;10.67;;
3487;SDS011;38546;48.170;11.724;2023-05-27T05:49:02;22.67;;;12.20;;
3487;SDS011;38546;48.170;11.724;2023-05-27T05:51:52;20.50;;;11.57;;
3487;SDS011;38546;48.170;11.724;2023-05-27T05:54:41;18.23;;;11.13;;
3487;SDS011;38546;48.170;11.724;2023-05-27T05:57:31;15.43;;;11.37;;
3487;SDS011;38546;48.170;11.724;2023-05-27T06:00:21;18.10;;;10.93;;
3487;SDS011;38546;48.170;11.724;2023-05-27T06:03:12;15.60;;;10.87;;
3487;SDS011;38546;48.170;11.724;2023-05-27T06:06:02;18.47;;;10.63;;
3487;SDS011;38546;48.170;11.724;2023-05-27T06:08:52;18.13;;;11.13;;
3487;SDS011;38546;48.170;11.724;2023-05-27T06:11:41;16.43;;;10.70;;
3487;SDS011;38546;48.170;11.724;2023-05-27T06:14:31;12.27;;;9.33;;
3487;SDS011;38546;48.170;11.724;2023-05-27T06:17:20;14.73;;;8.60;;
3487;SDS011;38546;48.170;11.724;2023-05-27T06:20:10;15.70;;;9.07;;
3487;SDS011;38546;48.170;11.724;2023-05-27T06:22:59;18.90;;;9.93;;
3487;SDS011;38546;48.170;11.724;2023-05-27T06:25:48;13.80;;;8.73;;
3487;SDS011;38546;48.170;11.724;2023-05-27T06:28:37;11.90;;;8.13;;
3487;SDS011;38546;48.170;11.724;2023-05-27T06:31:27;13.43;;;7.87;;
3487;SDS011;38546;48.170;11.724;2023-05-27T06:34:16;14.53;;;8.30;;
3487;SDS011;38546;48.170;11.724;2023-05-27T06:37:05;10.17;;;7.17;;
3487;SDS011;38546;48.170;11.724;2023-05-27T06:39:54;9.77;;;6.90;;
3487;SDS011;38546;48.170;11.724;2023-05-27T06:42:43;12.33;;;7.40;;
3487;SDS011;38546;48.170;11.724;2023-05-27T06:45:33;12.83;;;7.37;;
3487;SDS011;38546;48.170;11.724;2023-05-27T06:48:23;10.80;;;6.97;;
3487;SDS011;38546;48.170;11.724;2023-05-27T06:51:12;8.97;;;6.67;;
3487;SDS011;38546;48.170;11.724;2023-05-27T06:54:02;11.50;;;6.33;;
3487;SDS011;38546;48.170;11.724;2023-05-27T06:56:52;12.50;;;7.60;;
3487;SDS011;38546;48.170;11.724;2023-05-27T06:59:41;14.87;;;7.50;;
3487;SDS011;38546;48.170;11.724;2023-05-27T07:02:30;10.73;;;6.53;;
3487;SDS011;38546;48.170;11.724;2023-05-27T07:05:19;11.07;;;5.70;;
3487;SDS011;38546;48.170;11.724;2023-05-27T07:08:09;14.40;;;7.30;;
3487;SDS011;38546;48.170;11.724;2023-05-27T07:10:58;8.70;;;6.87;;
3487;SDS011;38546;48.170;11.724;2023-05-27T07:13:48;15.20;;;7.13;;
3487;SDS011;38546;48.170;11.724;2023-05-27T07:16:37;9.53;;;6.63;;
3487;SDS011;38546;48.170;11.724;2023-05-27T07:19:26;13.00;;;7.70;;
3487;SDS011;38546;48.170;11.724;2023-05-27T07:22:15;9.97;;;7.20;;
3487;SDS011;38546;48.170;11.724;2023-05-27T07:25:04;12.50;;;7.20;;
3487;SDS011;38546;48.170;11.724;2023-05-27T07:27:55;10.10;;;6.83;;
3487;SDS011;38546;48.170;11.724;2023-05-27T07:30:44;8.60;;;6.23;;
3487;SDS011;38546;48.170;11.724;2023-05-27T07:33:33;9.07;;;6.40;;
3487;SDS011;38546;48.170;11.724;2023-05-27T07:36:23;14.40;;;7.40;;
3487;SDS011;38546;48.170;11.724;2023-05-27T07:39:12;10.93;;;6.73;;
3487;SDS011;38546;48.170;11.724;2023-05-27T07:42:02;10.80;;;7.23;;
3487;SDS011;38546;48.170;11.724;2023-05-27T07:44:53;12.73;;;6.20;;
3487;SDS011;38546;48.170;11.724;2023-05-27T07:47:42;9.83;;;7.50;;
3487;SDS011;38546;48.170;11.724;2023-05-27T07:50:32;12.77;;;7.77;;
3487;SDS011;38546;48.170;11.724;2023-05-27T07:53:22;16.93;;;7.23;;
3487;SDS011;38546;48.170;11.724;2023-05-27T07:56:11;16.07;;;8.60;;
3487;SDS011;38546;48.170;11.724;2023-05-27T07:59:01;10.40;;;7.10;;
3487;SDS011;38546;48.170;11.724;2023-05-27T08:01:50;30.00;;;8.53;;
3487;SDS011;38546;48.170;11.724;2023-05-27T08:04:40;11.03;;;7.37;;
3487;SDS011;38546;48.170;11.724;2023-05-27T08:07:32;11.60;;;8.67;;
3487;SDS011;38546;48.170;11.724;2023-05-27T08:10:21;10.97;;;6.57;;
3487;SDS011;38546;48.170;11.724;2023-05-27T08:13:11;12.20;;;7.37;;
3487;SDS011;38546;48.170;11.724;2023-05-27T08:16:00;13.97;;;7.70;;
3487;SDS011;38546;48.170;11.724;2023-05-27T08:18:50;13.27;;;7.50;;
3487;SDS011;38546;48.170;11.724;2023-05-27T08:21:39;14.07;;;7.23;;
3487;SDS011;38546;48.170;11.724;2023-05-27T08:24:29;14.57;;;8.03;;
3487;SDS011;38546;48.170;11.724;2023-05-27T08:27:41;8.93;;;6.90;;
3487;SDS011;38546;48.170;11.724;2023-05-27T08:30:50;15.77;;;7.17;;
3487;SDS011;38546;48.170;11.724;2023-05-27T08:33:40;9.07;;;7.13;;
3487;SDS011;38546;48.170;11.724;2023-05-27T08:36:29;11.30;;;7.97;;
3487;SDS011;38546;48.170;11.724;2023-05-27T08:39:20;13.10;;;7.60;;
3487;SDS011;38546;48.170;11.724;2023-05-27T08:42:10;12.77;;;8.10;;
3487;SDS011;38546;48.170;11.724;2023-05-27T08:44:59;8.30;;;6.93;;
3487;SDS011;38546;48.170;11.724;2023-05-27T08:47:49;14.70;;;7.73;;
3487;SDS011;38546;48.170;11.724;2023-05-27T08:50:38;11.97;;;8.93;;
3487;SDS011;38546;48.170;11.724;2023-05-27T08:53:28;16.03;;;8.40;;
3487;SDS011;38546;48.170;11.724;2023-05-27T08:56:19;16.73;;;8.37;;
3487;SDS011;38546;48.170;11.724;2023-05-27T08:59:10;15.33;;;8.70;;
3487;SDS011;38546;48.170;11.724;2023-05-27T09:02:00;13.50;;;8.87;;
3487;SDS011;38546;48.170;11.724;2023-05-27T09:04:51;15.60;;;8.50;;
3487;SDS011;38546;48.170;11.724;2023-05-27T09:07:42;12.80;;;7.87;;
3487;SDS011;38546;48.170;11.724;2023-05-27T09:10:39;14.03;;;8.00;;
3487;SDS011;38546;48.170;11.724;2023-05-27T09:13:30;10.33;;;7.90;;
3487;SDS011;38546;48.170;11.724;2023-05-27T09:16:20;10.93;;;8.37;;
3487;SDS011;38546;48.170;11.724;2023-05-27T09:19:17;14.70;;;7.87;;
3487;SDS011;38546;48.170;11.724;2023-05-27T09:22:07;13.57;;;7.37;;
3487;SDS011;38546;48.170;11.724;2023-05-27T09:24:58;11.40;;;8.50;;
3487;SDS011;38546;48.170;11.724;2023-05-27T09:27:48;18.90;;;7.97;;
3487;SDS011;38546;48.170;11.724;2023-05-27T09:30:37;11.70;;;8.00;;
3487;SDS011;38546;48.170;11.724;2023-05-27T09:33:27;13.27;;;7.57;;
3487;SDS011;38546;48.170;11.724;2023-05-27T09:36:20;11.80;;;8.10;;
3487;SDS011;38546;48.170;11.724;2023-05-27T09:39:11;12.77;;;8.70;;
3487;SDS011;38546;48.170;11.724;2023-05-27T09:42:05;16.20;;;8.30;;
3487;SDS011;38546;48.170;11.724;2023-05-27T09:44:55;14.23;;;7.63;;
3487;SDS011;38546;48.170;11.724;2023-05-27T09:47:49;11.53;;;7.50;;
3487;SDS011;38546;48.170;11.724;2023-05-27T09:50:41;9.80;;;7.63;;
3487;SDS011;38546;48.170;11.724;2023-05-27T09:53:32;15.13;;;8.33;;
3487;SDS011;38546;48.170;11.724;2023-05-27T09:56:24;15.00;;;8.40;;
3487;SDS011;38546;48.170;11.724;2023-05-27T09:59:15;15.47;;;8.57;;
3487;SDS011;38546;48.170;11.724;2023-05-27T10:02:06;11.67;;;7.20;;
3487;SDS011;38546;48.170;11.724;2023-05-27T10:04:56;11.57;;;7.53;;
3487;SDS011;38546;48.170;11.724;2023-05-27T10:07:47;14.23;;;7.47;;
3487;SDS011;38546;48.170;11.724;2023-05-27T10:10:36;13.47;;;10.53;;
3487;SDS011;38546;48.170;11.724;2023-05-27T10:13:26;16.97;;;11.07;;
3487;SDS011;38546;48.170;11.724;2023-05-27T10:16:19;15.47;;;8.80;;
3487;SDS011;38546;48.170;11.724;2023-05-27T10:19:11;11.90;;;9.25;;
3487;SDS011;38546;48.170;11.724;2023-05-27T10:22:07;11.57;;;7.57;;
3487;SDS011;38546;48.170;11.724;2023-05-27T10:25:06;10.20;;;7.93;;
3487;SDS011;38546;48.170;11.724;2023-05-27T10:28:01;12.70;;;7.80;;
3487;SDS011;38546;48.170;11.724;2023-05-27T10:30:51;9.63;;;6.97;;
3487;SDS011;38546;48.170;11.724;2023-05-27T10:33:47;8.67;;;6.80;;
3487;SDS011;38546;48.170;11.724;2023-05-27T10:36:39;12.40;;;7.37;;
3487;SDS011;38546;48.170;11.724;2023-05-27T10:39:29;12.13;;;6.70;;
3487;SDS011;38546;48.170;11.724;2023-05-27T10:42:22;8.97;;;6.67;;
3487;SDS011;38546;48.170;11.724;2023-05-27T10:45:13;11.40;;;6.53;;
3487;SDS011;38546;48.170;11.724;2023-05-27T10:48:03;13.50;;;7.40;;
3487;SDS011;38546;48.170;11.724;2023-05-27T10:51:03;15.27;;;7.20;;
3487;SDS011;38546;48.170;11.724;2023-05-27T10:53:52;13.90;;;8.97;;
3487;SDS011;38546;48.170;11.724;2023-05-27T10:56:49;13.17;;;7.80;;
3487;SDS011;38546;48.170;11.724;2023-05-27T10:59:43;12.13;;;7.13;;
3487;SDS011;38546;48.170;11.724;2023-05-27T11:02:39;11.40;;;6.90;;
3487;SDS011;38546;48.170;11.724;2023-05-27T11:05:29;14.47;;;10.33;;
3487;SDS011;38546;48.170;11.724;2023-05-27T11:08:21;15.73;;;9.97;;
3487;SDS011;38546;48.170;11.724;2023-05-27T11:11:10;11.23;;;7.20;;
3487;SDS011;38546;48.170;11.724;2023-05-27T11:14:01;9.20;;;6.67;;
3487;SDS011;38546;48.170;11.724;2023-05-27T11:16:50;10.47;;;6.20;;
3487;SDS011;38546;48.170;11.724;2023-05-27T11:19:41;8.67;;;6.20;;
3487;SDS011;38546;48.170;11.724;2023-05-27T11:22:31;9.33;;;5.90;;
3487;SDS011;38546;48.170;11.724;2023-05-27T11:25:20;9.60;;;6.13;;
3487;SDS011;38546;48.170;11.724;2023-05-27T11:28:16;16.10;;;5.90;;
3487;SDS011;38546;48.170;11.724;2023-05-27T11:31:06;8.60;;;6.20;;
3487;SDS011;38546;48.170;11.724;2023-05-27T11:33:55;20.23;;;7.90;;
3487;SDS011;38546;48.170;11.724;2023-05-27T11:36:47;11.77;;;6.90;;
3487;SDS011;38546;48.170;11.724;2023-05-27T11:39:48;10.30;;;6.13;;
3487;SDS011;38546;48.170;11.724;2023-05-27T11:42:43;9.50;;;6.00;;
3487;SDS011;38546;48.170;11.724;2023-05-27T11:45:37;33.00;;;12.47;;
3487;SDS011;38546;48.170;11.724;2023-05-27T11:48:26;11.10;;;6.27;;
3487;SDS011;38546;48.170;11.724;2023-05-27T11:51:16;10.93;;;5.10;;
3487;SDS011;38546;48.170;11.724;2023-05-27T11:54:05;9.43;;;6.30;;
3487;SDS011;38546;48.170;11.724;2023-05-27T11:56:55;8.40;;;6.90;;
3487;SDS011;38546;48.170;11.724;2023-05-27T11:59:45;7.10;;;6.10;;
3487;SDS011;38546;48.170;11.724;2023-05-27T12:02:34;9.83;;;5.73;;
3487;SDS011;38546;48.170;11.724;2023-05-27T12:05:24;9.80;;;5.87;;
3487;SDS011;38546;48.170;11.724;2023-05-27T12:08:13;9.03;;;6.13;;
3487;SDS011;38546;48.170;11.724;2023-05-27T12:11:03;15.70;;;9.33;;
3487;SDS011;38546;48.170;11.724;2023-05-27T12:13:53;16.23;;;8.77;;
3487;SDS011;38546;48.170;11.724;2023-05-27T12:16:42;11.43;;;5.57;;
3487;SDS011;38546;48.170;11.724;2023-05-27T12:19:32;6.60;;;5.87;;
3487;SDS011;38546;48.170;11.724;2023-05-27T12:22:23;9.17;;;5.90;;
3487;SDS011;38546;48.170;11.724;2023-05-27T12:25:12;7.20;;;5.40;;
3487;SDS011;38546;48.170;11.724;2023-05-27T12:28:02;12.03;;;6.50;;
3487;SDS011;38546;48.170;11.724;2023-05-27T12:30:51;7.37;;;5.57;;
3487;SDS011;38546;48.170;11.724;2023-05-27T12:33:41;18.40;;;5.90;;
3487;SDS011;38546;48.170;11.724;2023-05-27T12:36:30;10.23;;;6.00;;
3487;SDS011;38546;48.170;11.724;2023-05-27T12:39:20;7.10;;;5.23;;
3487;SDS011;38546;48.170;11.724;2023-05-27T12:42:09;13.93;;;6.07;;
3487;SDS011;38546;48.170;11.724;2023-05-27T12:44:59;10.57;;;6.53;;
3487;SDS011;38546;48.170;11.724;2023-05-27T12:47:48;11.00;;;6.30;;
3487;SDS011;38546;48.170;11.724;2023-05-27T12:50:38;7.77;;;5.37;;
3487;SDS011;38546;48.170;11.724;2023-05-27T12:53:28;11.10;;;6.00;;
3487;SDS011;38546;48.170;11.724;2023-05-27T12:56:17;8.17;;;5.73;;
3487;SDS011;38546;48.170;11.724;2023-05-27T12:59:07;9.23;;;6.30;;
3487;SDS011;38546;48.170;11.724;2023-05-27T13:01:56;12.50;;;7.47;;
3487;SDS011;38546;48.170;11.724;2023-05-27T13:04:45;9.00;;;6.03;;
3487;SDS011;38546;48.170;11.724;2023-05-27T13:07:36;8.17;;;6.67;;
3487;SDS011;38546;48.170;11.724;2023-05-27T13:10:30;10.80;;;5.60;;
3487;SDS011;38546;48.170;11.724;2023-05-27T13:13:19;11.13;;;6.00;;
3487;SDS011;38546;48.170;11.724;2023-05-27T13:16:09;18.53;;;9.00;;
3487;SDS011;38546;48.170;11.724;2023-05-27T13:18:59;8.50;;;5.23;;
3487;SDS011;38546;48.170;11.724;2023-05-27T13:21:49;10.57;;;7.50;;
3487;SDS011;38546;48.170;11.724;2023-05-27T13:24:39;9.73;;;6.83;;
3487;SDS011;38546;48.170;11.724;2023-05-27T13:27:29;10.40;;;6.67;;
3487;SDS011;38546;48.170;11.724;2023-05-27T13:30:19;6.57;;;5.40;;
3487;SDS011;38546;48.170;11.724;2023-05-27T13:33:08;12.47;;;6.17;;
3487;SDS011;38546;48.170;11.724;2023-05-27T13:35:58;12.23;;;5.90;;
3487;SDS011;38546;48.170;11.724;2023-05-27T13:38:48;8.70;;;5.70;;
3487;SDS011;38546;48.170;11.724;2023-05-27T13:41:37;5.60;;;4.57;;
3487;SDS011;38546;48.170;11.724;2023-05-27T13:44:27;8.30;;;5.30;;
3487;SDS011;38546;48.170;11.724;2023-05-27T13:47:16;9.80;;;5.50;;
3487;SDS011;38546;48.170;11.724;2023-05-27T13:50:05;7.60;;;5.80;;
3487;SDS011;38546;48.170;11.724;2023-05-27T13:52:55;10.27;;;5.20;;
3487;SDS011;38546;48.170;11.724;2023-05-27T13:55:44;11.60;;;5.63;;
3487;SDS011;38546;48.170;11.724;2023-05-27T13:58:34;7.50;;;5.03;;
3487;SDS011;38546;48.170;11.724;2023-05-27T14:01:23;5.60;;;5.00;;
3487;SDS011;38546;48.170;11.724;2023-05-27T14:04:12;6.90;;;4.70;;
3487;SDS011;38546;48.170;11.724;2023-05-27T14:07:01;9.03;;;5.40;;
3487;SDS011;38546;48.170;11.724;2023-05-27T14:09:50;6.40;;;4.73;;
3487;SDS011;38546;48.170;11.724;2023-05-27T14:12:40;6.33;;;5.27;;
3487;SDS011;38546;48.170;11.724;2023-05-27T14:15:29;6.00;;;5.00;;
3487;SDS011;38546;48.170;11.724;2023-05-27T14:18:19;9.97;;;5.93;;
3487;SDS011;38546;48.170;11.724;2023-05-27T14:21:10;9.37;;;5.60;;
3487;SDS011;38546;48.170;11.724;2023-05-27T14:23:59;5.27;;;4.77;;
3487;SDS011;38546;48.170;11.724;2023-05-27T14:26:49;11.00;;;4.80;;
3487;SDS011;38546;48.170;11.724;2023-05-27T14:29:38;8.80;;;5.00;;
3487;SDS011;38546;48.170;11.724;2023-05-27T14:32:28;7.77;;;5.50;;
3487;SDS011;38546;48.170;11.724;2023-05-27T14:35:17;9.73;;;5.30;;
3487;SDS011;38546;48.170;11.724;2023-05-27T14:38:06;7.83;;;5.40;;
3487;SDS011;38546;48.170;11.724;2023-05-27T14:40:56;11.57;;;5.30;;
3487;SDS011;38546;48.170;11.724;2023-05-27T14:43:45;12.47;;;5.90;;
3487;SDS011;38546;48.170;11.724;2023-05-27T14:46:34;7.43;;;5.23;;
3487;SDS011;38546;48.170;11.724;2023-05-27T14:49:24;9.90;;;4.90;;
3487;SDS011;38546;48.170;11.724;2023-05-27T14:52:13;6.73;;;4.43;;
3487;SDS011;38546;48.170;11.724;2023-05-27T14:55:02;16.00;;;5.30;;
3487;SDS011;38546;48.170;11.724;2023-05-27T14:57:53;9.13;;;4.37;;
3487;SDS011;38546;48.170;11.724;2023-05-27T15:00:42;9.10;;;5.07;;
3487;SDS011;38546;48.170;11.724;2023-05-27T15:03:31;11.50;;;4.40;;
3487;SDS011;38546;48.170;11.724;2023-05-27T15:06:20;4.87;;;4.07;;
3487;SDS011;38546;48.170;11.724;2023-05-27T15:09:09;6.10;;;4.60;;
3487;SDS011;38546;48.170;11.724;2023-05-27T15:11:59;5.43;;;4.20;;
3487;SDS011;38546;48.170;11.724;2023-05-27T15:14:48;7.07;;;4.43;;
3487;SDS011;38546;48.170;11.724;2023-05-27T15:17:38;7.07;;;4.80;;
3487;SDS011;38546;48.170;11.724;2023-05-27T15:20:29;8.87;;;5.33;;
3487;SDS011;38546;48.170;11.724;2023-05-27T15:23:18;6.30;;;4.30;;
3487;SDS011;38546;48.170;11.724;2023-05-27T15:26:07;6.90;;;4.20;;
3487;SDS011;38546;48.170;11.724;2023-05-27T15:28:56;4.90;;;4.27;;
3487;SDS011;38546;48.170;11.724;2023-05-27T15:31:45;9.80;;;4.33;;
3487;SDS011;38546;48.170;11.724;2023-05-27T15:34:34;6.20;;;3.80;;
3487;SDS011;38546;48.170;11.724;2023-05-27T15:37:23;5.43;;;4.93;;
3487;SDS011;38546;48.170;11.724;2023-05-27T15:40:13;4.23;;;3.60;;
3487;SDS011;38546;48.170;11.724;2023-05-27T15:43:02;15.10;;;4.70;;
3487;SDS011;38546;48.170;11.724;2023-05-27T15:45:51;6.20;;;3.67;;
3487;SDS011;38546;48.170;11.724;2023-05-27T15:48:40;7.73;;;4.10;;
3487;SDS011;38546;48.170;11.724;2023-05-27T15:51:29;5.40;;;4.37;;
3487;SDS011;38546;48.170;11.724;2023-05-27T15:54:18;6.33;;;4.00;;
3487;SDS011;38546;48.170;11.724;2023-05-27T15:57:08;5.07;;;3.83;;
3487;SDS011;38546;48.170;11.724;2023-05-27T15:59:58;7.20;;;3.93;;
3487;SDS011;38546;48.170;11.724;2023-05-27T16:02:47;7.47;;;4.40;;
3487;SDS011;38546;48.170;11.724;2023-05-27T16:05:36;9.40;;;4.10;;
3487;SDS011;38546;48.170;11.724;2023-05-27T16:08:24;5.97;;;3.53;;
3487;SDS011;38546;48.170;11.724;2023-05-27T16:11:13;7.57;;;4.17;;
3487;SDS011;38546;48.170;11.724;2023-05-27T16:14:02;3.87;;;3.47;;
3487;SDS011;38546;48.170;11.724;2023-05-27T16:16:51;7.37;;;3.97;;
3487;SDS011;38546;48.170;11.724;2023-05-27T16:19:40;8.57;;;3.83;;
3487;SDS011;38546;48.170;11.724;2023-05-27T16:22:29;8.43;;;4.13;;
3487;SDS011;38546;48.170;11.724;2023-05-27T16:25:18;10.33;;;4.67;;
3487;SDS011;38546;48.170;11.724;2023-05-27T16:28:07;4.10;;;3.70;;
3487;SDS011;38546;48.170;11.724;2023-05-27T16:30:56;6.27;;;3.60;;
3487;SDS011;38546;48.170;11.724;2023-05-27T16:33:47;5.37;;;4.27;;
3487;SDS011;38546;48.170;11.724;2023-05-27T16:36:37;7.47;;;3.90;;
3487;SDS011;38546;48.170;11.724;2023-05-27T16:39:26;8.73;;;4.30;;
3487;SDS011;38546;48.170;11.724;2023-05-27T16:42:16;4.27;;;3.57;;
3487;SDS011;38546;48.170;11.724;2023-05-27T16:45:05;11.00;;;4.20;;
3487;SDS011;38546;48.170;11.724;2023-05-27T16:47:56;11.33;;;4.80;;
3487;SDS011;38546;48.170;11.724;2023-05-27T16:50:45;5.70;;;3.83;;
3487;SDS011;38546;48.170;11.724;2023-05-27T16:53:34;11.47;;;4.23;;
3487;SDS011;38546;48.170;11.724;2023-05-27T16:56:24;5.90;;;4.10;;